Time;durP1;ratioP1;P1;durP2;ratioP2;P2;SDS_P1;SDS_P2;PMS_P1;PMS_P2;Temp;Humidity;BMP_temperature;BMP_pressure;BME280_temperature;BME280_humidity;BME280_pressure;Samples;Min_cycle;Max_cycle;Signal;HPM_P1;HPM_P2
2021/01/04 00:02:21;;;;;;;11.85;7.18;;;;;;;-0.56;90.66;96796.56;5012467;28;20539;-80
2021/01/04 00:04:52;;;;;;;11.80;7.32;;;;;;;-0.51;90.24;96793.47;5018575;28;20029;-80
2021/01/04 00:07:52;;;;;;;11.80;6.85;;;;;;;-0.55;90.56;96792.22;5046442;28;20613;-80
2021/01/04 00:10:35;;;;;;;12.60;7.53;;;;;;;-0.52;90.61;96787.53;5046986;28;20124;-80
2021/01/04 00:13:22;;;;;;;13.23;7.53;;;;;;;-0.60;91.17;96783.34;5029265;28;20037;-80
2021/01/04 00:15:55;;;;;;;12.88;7.97;;;;;;;-0.51;90.71;96780.69;5007239;28;20033;-81
2021/01/04 00:18:21;;;;;;;13.07;8.05;;;;;;;-0.43;90.62;96789.00;5012834;28;20037;-80
2021/01/04 00:21:23;;;;;;;14.63;8.75;;;;;;;-0.54;91.06;96781.03;5028676;28;20026;-80
2021/01/04 00:24:15;;;;;;;14.57;8.38;;;;;;;-0.55;90.98;96779.44;4959968;28;20041;-80
2021/01/04 00:26:59;;;;;;;12.63;7.35;;;;;;;-0.62;90.51;96774.28;5023155;28;20039;-80
2021/01/04 00:29:25;;;;;;;12.80;7.18;;;;;;;-0.60;90.38;96773.13;5013472;28;20036;-80
2021/01/04 00:32:00;;;;;;;10.52;6.45;;;;;;;-0.65;90.93;96770.31;5025450;28;20517;-80
2021/01/04 00:34:28;;;;;;;12.03;7.17;;;;;;;-0.56;91.28;96773.56;5022103;28;20364;-81
2021/01/04 00:37:09;;;;;;;12.70;6.90;;;;;;;-0.64;90.79;96771.88;5025245;28;20097;-80
2021/01/04 00:39:42;;;;;;;11.90;6.97;;;;;;;-0.64;90.58;96769.34;5016173;28;20025;-80
2021/01/04 00:42:36;;;;;;;11.18;6.90;;;;;;;-0.71;91.17;96765.94;5029104;28;20039;-80
2021/01/04 00:45:04;;;;;;;12.13;7.43;;;;;;;-0.58;91.05;96771.16;5020723;28;20033;-80
2021/01/04 00:47:36;;;;;;;13.02;7.28;;;;;;;-0.63;90.84;96763.25;5005538;28;20036;-80
2021/01/04 00:50:28;;;;;;;10.88;7.93;;;;;;;-0.63;91.02;96770.94;5022291;28;20060;-81
2021/01/04 00:53:07;;;;;;;12.35;7.68;;;;;;;-0.74;90.70;96756.06;5047265;28;20047;-80
2021/01/04 00:56:04;;;;;;;12.43;6.93;;;;;;;-0.62;90.89;96769.97;5029557;28;20060;-81
2021/01/04 00:58:42;;;;;;;14.23;7.45;;;;;;;-0.54;91.06;96773.38;5009985;28;20116;-81
2021/01/04 01:01:14;;;;;;;13.52;7.45;;;;;;;-0.70;91.05;96774.38;5040892;28;20061;-81
2021/01/04 01:03:49;;;;;;;12.95;7.78;;;;;;;-0.73;91.85;96775.56;5005486;28;20048;-81
2021/01/04 01:06:25;;;;;;;13.75;7.78;;;;;;;-0.87;92.26;96761.84;5013566;28;20639;-81
2021/01/04 01:08:54;;;;;;;12.75;6.88;;;;;;;-0.76;91.86;96781.03;5013473;28;20033;-81
2021/01/04 01:11:57;;;;;;;14.77;8.20;;;;;;;-0.65;91.53;96774.63;4990973;28;20119;-81
2021/01/04 01:14:44;;;;;;;14.98;7.28;;;;;;;-0.66;91.08;96783.28;5048060;28;20025;-81
2021/01/04 01:17:40;;;;;;;16.33;8.80;;;;;;;-0.66;91.64;96778.97;5006930;28;20048;-80
2021/01/04 01:20:15;;;;;;;13.63;8.00;;;;;;;-0.70;90.99;96777.75;5047267;28;20064;-80
2021/01/04 01:22:42;;;;;;;14.07;7.88;;;;;;;-0.53;91.75;96777.50;5030093;28;20025;-81
2021/01/04 01:25:12;;;;;;;13.27;7.65;;;;;;;-0.57;91.49;96787.28;4996959;28;20370;-81
2021/01/04 01:27:53;;;;;;;12.38;7.47;;;;;;;-0.60;91.19;96793.59;5024681;28;20522;-81
2021/01/04 01:30:41;;;;;;;14.35;7.82;;;;;;;-0.53;91.68;96792.84;5044986;28;20032;-81
2021/01/04 01:33:13;;;;;;;12.13;6.95;;;;;;;-0.68;91.40;96783.47;5028718;28;20040;-80
2021/01/04 01:35:56;;;;;;;14.20;8.02;;;;;;;-0.61;91.43;96798.88;5046071;28;20480;-81
2021/01/04 01:38:46;;;;;;;13.02;6.93;;;;;;;-0.61;91.39;96791.22;5024095;28;20037;-81
2021/01/04 01:41:42;;;;;;;15.18;7.93;;;;;;;-0.59;91.25;96790.03;5046345;28;20057;-81
2021/01/04 01:44:26;;;;;;;13.82;7.57;;;;;;;-0.63;90.96;96793.94;5029677;28;20499;-80
2021/01/04 01:47:06;;;;;;;13.95;7.80;;;;;;;-0.55;91.33;96798.13;5031217;28;20566;-81
2021/01/04 01:50:14;;;;;;;15.00;8.13;;;;;;;-0.55;90.81;96797.34;5017035;28;20488;-81
2021/01/04 01:53:07;;;;;;;13.98;7.78;;;;;;;-0.54;91.08;96801.50;4952172;28;20453;-81
2021/01/04 01:55:56;;;;;;;15.35;8.63;;;;;;;-0.59;91.32;96795.16;4953843;28;20490;-81
2021/01/04 01:58:24;;;;;;;15.18;8.00;;;;;;;-0.46;91.18;96806.50;5026849;28;20033;-81
2021/01/04 02:00:54;;;;;;;13.90;7.80;;;;;;;-0.44;90.92;96804.53;5026667;28;20431;-81
2021/01/04 02:03:40;;;;;;;15.65;7.82;;;;;;;-0.58;90.92;96801.84;5028162;28;20045;-81
2021/01/04 02:06:19;;;;;;;13.27;8.18;;;;;;;-0.48;90.63;96805.88;5033076;28;20076;-81
2021/01/04 02:08:59;;;;;;;13.23;8.30;;;;;;;-0.59;91.22;96787.47;5012702;28;20423;-81
2021/01/04 02:12:13;;;;;;;13.27;7.35;;;;;;;-0.52;91.03;96804.66;5033276;28;20086;-81
2021/01/04 02:14:59;;;;;;;15.43;8.20;;;;;;;-0.47;90.60;96804.91;4995934;28;20064;-81
2021/01/04 02:17:49;;;;;;;14.68;8.30;;;;;;;-0.54;90.82;96801.50;5016891;28;20029;-81
2021/01/04 02:20:42;;;;;;;13.35;7.55;;;;;;;-0.49;90.48;96802.53;5050418;28;20032;-81
2021/01/04 02:23:23;;;;;;;15.13;7.38;;;;;;;-0.50;90.42;96800.94;5033444;28;20021;-81
2021/01/04 02:25:50;;;;;;;15.52;7.78;;;;;;;-0.48;90.92;96800.75;5022648;28;20041;-80
2021/01/04 02:28:26;;;;;;;14.18;7.82;;;;;;;-0.47;90.96;96802.34;4994955;28;20065;-81
2021/01/04 02:30:52;;;;;;;13.90;7.72;;;;;;;-0.51;90.89;96781.47;5036183;28;20033;-81
2021/01/04 02:33:18;;;;;;;13.80;6.90;;;;;;;-0.42;90.40;96800.03;5024502;28;20369;-80
2021/01/04 02:35:45;;;;;;;15.38;7.95;;;;;;;-0.44;90.24;96807.09;5029775;28;20024;-81
2021/01/04 02:38:11;;;;;;;16.75;9.20;;;;;;;-0.44;90.82;96794.31;5013759;28;20025;-81
2021/01/04 02:40:37;;;;;;;14.52;7.43;;;;;;;-0.39;90.05;96799.66;5009970;28;20036;-80
2021/01/04 02:43:03;;;;;;;14.25;7.65;;;;;;;-0.40;90.12;96793.75;5016501;28;20163;-81
2021/01/04 02:45:31;;;;;;;13.88;7.93;;;;;;;-0.36;90.11;96806.16;5013876;28;20033;-81
2021/01/04 02:48:19;;;;;;;13.73;7.82;;;;;;;-0.44;90.27;96805.31;5019675;28;20104;-81
2021/01/04 02:51:03;;;;;;;15.25;7.43;;;;;;;-0.40;90.81;96808.31;5032201;28;20040;-81
2021/01/04 02:53:50;;;;;;;13.77;7.40;;;;;;;-0.44;90.15;96796.88;4999658;28;20067;-81
2021/01/04 02:56:21;;;;;;;13.02;7.00;;;;;;;-0.41;90.41;96797.28;5010400;28;20025;-81
2021/01/04 02:59:26;;;;;;;13.10;7.70;;;;;;;-0.42;90.06;96805.94;5032468;28;20035;-81
2021/01/04 03:02:22;;;;;;;13.38;7.82;;;;;;;-0.44;90.89;96797.66;5048248;28;20045;-81
2021/01/04 03:04:49;;;;;;;15.68;7.85;;;;;;;-0.39;90.68;96799.66;5012429;28;20049;-81
2021/01/04 03:07:17;;;;;;;16.25;8.77;;;;;;;-0.40;90.71;96801.41;5012143;28;20399;-81
2021/01/04 03:09:49;;;;;;;15.50;8.32;;;;;;;-0.44;90.25;96791.75;4996031;28;20083;-81
2021/01/04 03:12:18;;;;;;;15.25;8.27;;;;;;;-0.48;90.54;96786.22;5012146;28;20511;-81
2021/01/04 03:14:57;;;;;;;13.82;7.80;;;;;;;-0.39;90.02;96795.34;5012654;28;20511;-81
2021/01/04 03:17:45;;;;;;;15.07;8.07;;;;;;;-0.45;90.26;96805.50;4995609;28;20045;-81
2021/01/04 03:20:16;;;;;;;14.57;7.72;;;;;;;-0.40;90.35;96801.41;5012066;28;20428;-81
2021/01/04 03:22:45;;;;;;;13.57;7.45;;;;;;;-0.42;90.71;96794.91;5012393;28;20056;-81
2021/01/04 03:25:31;;;;;;;15.35;8.23;;;;;;;-0.46;90.42;96791.16;4995999;28;20086;-81
2021/01/04 03:27:57;;;;;;;18.42;9.18;;;;;;;-0.40;90.15;96792.97;5029639;28;20535;-81
2021/01/04 03:30:23;;;;;;;18.02;9.20;;;;;;;-0.38;90.82;96791.81;4995878;28;20029;-81
2021/01/04 03:32:49;;;;;;;17.48;9.48;;;;;;;-0.38;90.27;96793.56;4995805;28;20040;-81
2021/01/04 03:35:16;;;;;;;16.83;9.02;;;;;;;-0.36;90.42;96789.06;5009236;28;20506;-81
2021/01/04 03:37:41;;;;;;;20.48;9.43;;;;;;;-0.34;90.48;96786.31;4990189;28;20036;-81
2021/01/04 03:40:07;;;;;;;18.55;9.55;;;;;;;-0.29;90.75;96783.97;4995022;28;20364;-81
2021/01/04 03:42:33;;;;;;;18.23;9.70;;;;;;;-0.44;90.56;96786.63;5012092;28;20033;-81
2021/01/04 03:44:59;;;;;;;18.83;8.65;;;;;;;-0.57;90.94;96779.63;5008843;28;20049;-81
2021/01/04 03:47:25;;;;;;;18.33;9.18;;;;;;;-0.50;91.23;96793.25;5009418;28;20034;-81
2021/01/04 03:49:52;;;;;;;19.42;9.60;;;;;;;-0.56;91.17;96791.44;5011439;28;20110;-80
2021/01/04 03:52:20;;;;;;;20.15;10.15;;;;;;;-0.61;91.22;96794.53;5012059;28;20380;-80
2021/01/04 03:54:46;;;;;;;21.40;9.55;;;;;;;-0.64;91.42;96787.22;4993876;28;20038;-81
2021/01/04 03:57:12;;;;;;;19.58;9.45;;;;;;;-0.65;92.03;96783.09;5007681;28;20041;-80
2021/01/04 03:59:37;;;;;;;21.65;9.65;;;;;;;-0.64;91.95;96782.13;4974806;28;20378;-81
2021/01/04 04:02:05;;;;;;;23.42;9.80;;;;;;;-0.61;91.67;96799.66;4992851;28;20041;-81
2021/01/04 04:04:34;;;;;;;20.25;9.50;;;;;;;-0.62;91.81;96790.41;5001533;28;20527;-81
2021/01/04 04:06:59;;;;;;;25.08;11.57;;;;;;;-0.62;92.02;96787.88;5006119;28;20358;-81
2021/01/04 04:09:25;;;;;;;24.42;11.60;;;;;;;-0.56;91.78;96796.56;4973604;28;20097;-80
2021/01/04 04:11:51;;;;;;;27.88;12.30;;;;;;;-0.53;92.15;96797.94;4995344;28;20108;-81
2021/01/04 04:14:18;;;;;;;25.08;11.45;;;;;;;-0.62;91.89;96798.09;4995376;28;20309;-81
2021/01/04 04:16:47;;;;;;;22.67;9.52;;;;;;;-0.65;91.79;96797.63;5028963;28;20041;-81
2021/01/04 04:19:13;;;;;;;25.23;11.15;;;;;;;-0.57;91.42;96803.44;5007790;28;20396;-80
2021/01/04 04:21:39;;;;;;;21.85;9.45;;;;;;;-0.54;91.93;96807.38;4988106;28;20030;-81
2021/01/04 04:24:06;;;;;;;21.92;9.02;;;;;;;-0.55;91.21;96808.34;5011113;28;20188;-81
2021/01/04 04:26:31;;;;;;;19.48;8.98;;;;;;;-0.53;91.32;96809.00;4994371;28;20057;-80
2021/01/04 04:28:57;;;;;;;19.50;8.93;;;;;;;-0.67;90.97;96792.72;5028200;28;20045;-80
2021/01/04 04:31:23;;;;;;;21.20;9.30;;;;;;;-0.51;91.87;96813.91;5010755;28;20041;-81
2021/01/04 04:33:50;;;;;;;21.67;9.82;;;;;;;-0.48;91.39;96806.69;5005949;28;20089;-81
2021/01/04 04:36:23;;;;;;;19.38;10.50;;;;;;;-0.49;91.52;96815.31;4989701;28;20054;-81
2021/01/04 04:38:49;;;;;;;22.92;9.77;;;;;;;-0.45;91.80;96797.81;4994182;28;20444;-81
2021/01/04 04:41:26;;;;;;;25.42;11.20;;;;;;;-0.57;91.52;96802.63;4994578;28;20030;-81
2021/01/04 04:43:56;;;;;;;19.35;8.95;;;;;;;-0.48;91.48;96805.88;5011083;28;20108;-81
2021/01/04 04:46:29;;;;;;;23.55;9.82;;;;;;;-0.59;91.72;96792.59;5008948;28;20029;-81
2021/01/04 04:48:57;;;;;;;22.08;10.20;;;;;;;-0.52;91.22;96812.31;5010469;28;20125;-81
2021/01/04 04:51:51;;;;;;;18.42;9.52;;;;;;;-0.51;91.50;96806.25;4993738;28;20032;-81
2021/01/04 04:54:26;;;;;;;23.50;10.48;;;;;;;-0.54;91.28;96802.28;5010866;28;20476;-81
2021/01/04 04:57:31;;;;;;;26.27;11.02;;;;;;;-0.57;91.10;96806.00;4994268;28;20381;-80
2021/01/04 05:00:08;;;;;;;22.42;9.80;;;;;;;-0.52;91.37;96804.66;5010064;28;20065;-81
2021/01/04 05:03:00;;;;;;;25.13;10.02;;;;;;;-0.62;91.90;96795.53;4993856;28;20050;-80
2021/01/04 05:05:58;;;;;;;25.65;11.23;;;;;;;-0.57;91.94;96803.44;5004733;28;20124;-81
2021/01/04 05:08:30;;;;;;;24.35;10.18;;;;;;;-0.45;91.65;96800.38;5010375;28;20080;-81
2021/01/04 05:10:57;;;;;;;26.23;10.98;;;;;;;-0.50;91.15;96798.38;5031897;28;20521;-81
2021/01/04 05:13:36;;;;;;;26.83;11.80;;;;;;;-0.55;91.27;96790.47;5014969;28;20550;-80
2021/01/04 05:16:14;;;;;;;23.98;11.20;;;;;;;-0.54;91.79;96804.06;5013938;28;20056;-81
2021/01/04 05:18:49;;;;;;;27.30;12.05;;;;;;;-0.50;91.93;96802.69;4998192;28;20025;-80
2021/01/04 05:21:41;;;;;;;28.35;12.10;;;;;;;-0.65;92.17;96793.34;5031516;28;20388;-81
2021/01/04 05:24:22;;;;;;;20.70;10.50;;;;;;;-0.59;91.58;96805.38;5031487;28;20499;-81
2021/01/04 05:27:17;;;;;;;20.95;9.82;;;;;;;-0.61;92.12;96807.31;5012430;28;20040;-81
2021/01/04 05:30:04;;;;;;;26.88;10.55;;;;;;;-0.56;92.19;96809.34;4996792;28;20029;-81
2021/01/04 05:32:53;;;;;;;20.10;9.55;;;;;;;-0.67;92.11;96797.84;5013954;28;20065;-80
2021/01/04 05:35:19;;;;;;;22.77;9.95;;;;;;;-0.48;92.14;96808.41;4994867;28;20044;-81
2021/01/04 05:38:02;;;;;;;23.42;10.10;;;;;;;-0.52;91.30;96808.00;4992978;28;20088;-81
2021/01/04 05:41:01;;;;;;;19.55;8.98;;;;;;;-0.50;91.09;96812.94;4997140;28;20033;-81
2021/01/04 05:43:28;;;;;;;17.52;7.93;;;;;;;-0.36;90.98;96809.53;5032937;28;20643;-81
2021/01/04 05:46:06;;;;;;;19.67;8.82;;;;;;;-0.42;90.82;96810.25;5011660;28;20445;-81
2021/01/04 05:48:46;;;;;;;18.13;8.13;;;;;;;-0.46;91.22;96824.41;5014278;28;20114;-81
2021/01/04 05:51:17;;;;;;;19.83;9.07;;;;;;;-0.41;91.01;96816.97;5013676;28;20032;-81
2021/01/04 05:53:44;;;;;;;17.50;8.80;;;;;;;-0.38;90.98;96801.22;4981028;28;20500;-81
2021/01/04 05:56:10;;;;;;;17.48;8.75;;;;;;;-0.38;90.88;96812.28;5013786;28;20033;-81
2021/01/04 05:58:36;;;;;;;18.83;8.70;;;;;;;-0.39;91.02;96815.00;4991059;28;20037;-81
2021/01/04 06:01:14;;;;;;;17.17;8.45;;;;;;;-0.44;91.29;96812.22;5030012;28;20048;-81
2021/01/04 06:03:39;;;;;;;19.73;9.27;;;;;;;-0.33;91.36;96816.03;5029042;28;20064;-81
2021/01/04 06:06:24;;;;;;;19.27;8.82;;;;;;;-0.36;91.01;96814.66;4992884;28;20038;-82
2021/01/04 06:08:59;;;;;;;20.15;9.82;;;;;;;-0.38;91.41;96814.03;5006103;28;20439;-82
2021/01/04 06:11:25;;;;;;;;;;;;;;;-0.39;91.34;96817.56;5012616;28;20152;-81
2021/01/04 06:13:56;;;;;;;20.75;8.82;;;;;;;-0.26;90.97;96820.25;5012707;28;20186;-81
2021/01/04 06:16:25;;;;;;;21.75;9.27;;;;;;;-0.35;90.72;96818.78;4980515;28;20033;-82
2021/01/04 06:18:54;;;;;;;19.50;9.18;;;;;;;-0.32;91.06;96820.19;4996422;28;20029;-82
2021/01/04 06:21:39;;;;;;;16.10;7.45;;;;;;;-0.31;90.76;96819.19;5012030;28;20427;-82
2021/01/04 06:24:05;;;;;;;21.70;9.30;;;;;;;-0.31;90.88;96822.56;5012281;28;20049;-82
2021/01/04 06:26:31;;;;;;;21.27;9.63;;;;;;;-0.36;90.98;96819.75;5012599;28;20045;-80
2021/01/04 06:29:03;;;;;;;20.60;9.63;;;;;;;-0.40;90.95;96815.97;5009401;28;20531;-81
2021/01/04 06:31:42;;;;;;;22.65;9.98;;;;;;;-0.34;90.66;96828.03;5012201;28;20107;-81
2021/01/04 06:34:27;;;;;;;18.10;8.63;;;;;;;-0.33;91.16;96818.59;4993377;28;20029;-82
2021/01/04 06:36:54;;;;;;;21.58;9.52;;;;;;;-0.29;90.51;96822.34;4989797;28;20029;-81
2021/01/04 06:39:25;;;;;;;18.88;8.73;;;;;;;-0.24;90.97;96828.53;5012265;28;20084;-81
2021/01/04 06:41:52;;;;;;;19.05;8.65;;;;;;;-0.19;90.71;96822.84;5013207;28;20120;-82
2021/01/04 06:44:20;;;;;;;23.90;9.90;;;;;;;-0.27;90.76;96834.00;5011390;28;20029;-81
2021/01/04 06:47:04;;;;;;;19.60;8.32;;;;;;;-0.25;90.62;96829.50;5011670;28;20048;-81
2021/01/04 06:49:37;;;;;;;18.73;8.90;;;;;;;-0.20;89.93;96834.84;5029965;28;20379;-81
2021/01/04 06:52:22;;;;;;;21.80;10.75;;;;;;;-0.06;90.27;96834.97;5012306;28;20076;-81
2021/01/04 06:55:25;;;;;;;18.65;8.35;;;;;;;-0.19;90.68;96835.63;4980062;28;20085;-81
2021/01/04 06:58:02;;;;;;;19.50;8.50;;;;;;;-0.20;90.55;96832.28;5012366;28;20040;-81
2021/01/04 07:00:52;;;;;;;22.48;10.48;;;;;;;-0.18;90.39;96837.22;5011997;28;20036;-81
2021/01/04 07:03:21;;;;;;;26.98;10.73;;;;;;;-0.17;90.85;96835.44;4995753;28;20128;-81
2021/01/04 07:06:09;;;;;;;26.90;10.48;;;;;;;-0.22;90.75;96838.56;5006419;28;20124;-81
2021/01/04 07:09:09;;;;;;;23.05;10.43;;;;;;;-0.17;91.02;96840.56;4995991;28;20124;-81
2021/01/04 07:11:57;;;;;;;25.13;11.18;;;;;;;-0.26;90.79;96847.56;5029727;28;20492;-81
2021/01/04 07:14:53;;;;;;;29.52;11.23;;;;;;;-0.30;91.48;96856.59;4996072;28;20511;-81
2021/01/04 07:17:29;;;;;;;;;;;;;;;-0.37;91.64;96856.53;5012916;28;20511;-81
2021/01/04 07:20:09;;;;;;;28.98;11.45;;;;;;;-0.32;91.40;96850.88;4972995;28;19921;-80
2021/01/04 07:23:14;;;;;;;34.33;11.98;;;;;;;-0.33;91.22;96862.88;5029993;28;20387;-81
2021/01/04 07:25:55;;;;;;;27.98;11.98;;;;;;;-0.23;91.41;96860.78;5029517;28;20037;-81
2021/01/04 07:29:01;;;;;;;31.98;11.88;;;;;;;-0.31;91.75;96860.13;5030295;28;20033;-81
2021/01/04 07:31:41;;;;;;;31.77;12.23;;;;;;;-0.28;91.40;96858.00;5012223;28;20030;-81
2021/01/04 07:34:07;;;;;;;33.55;13.15;;;;;;;-0.19;91.54;96858.66;4993237;28;20374;-81
2021/01/04 07:36:53;;;;;;;36.85;13.88;;;;;;;-0.28;91.34;96855.44;5025309;28;20030;-81
2021/01/04 07:39:34;;;;;;;31.33;12.50;;;;;;;-0.23;91.50;96863.34;5011640;28;20061;-81
2021/01/04 07:42:08;;;;;;;35.42;12.00;;;;;;;-0.25;91.30;96865.31;4979914;28;20042;-81
2021/01/04 07:44:42;;;;;;;32.13;11.77;;;;;;;-0.18;91.38;96867.16;5012181;28;20025;-81
2021/01/04 07:47:23;;;;;;;35.72;12.13;;;;;;;-0.16;91.03;96870.31;4996102;28;20113;-81
2021/01/04 07:50:28;;;;;;;34.92;13.68;;;;;;;-0.27;91.68;96866.47;5029624;28;20492;-80
2021/01/04 07:53:12;;;;;;;35.75;13.40;;;;;;;-0.23;91.17;96860.78;5027823;28;20067;-81
2021/01/04 07:56:21;;;;;;;36.80;12.45;;;;;;;-0.30;91.02;96867.63;5029839;28;20096;-81
2021/01/04 07:58:53;;;;;;;42.90;13.68;;;;;;;-0.14;91.64;96873.47;5028730;28;20041;-81
2021/01/04 08:01:57;;;;;;;40.45;13.63;;;;;;;-0.19;91.61;96876.56;5025663;28;20029;-81
2021/01/04 08:04:45;;;;;;;36.28;12.93;;;;;;;-0.24;91.82;96871.22;5003476;28;20144;-81
2021/01/04 08:07:40;;;;;;;37.13;14.02;;;;;;;-0.25;91.70;96879.88;5005101;28;20424;-82
2021/01/04 08:10:37;;;;;;;26.08;10.60;;;;;;;-0.19;91.33;96876.56;5014693;28;20245;-81
2021/01/04 08:13:09;;;;;;;34.50;13.00;;;;;;;-0.26;91.54;96871.41;5031577;28;20439;-81
2021/01/04 08:15:50;;;;;;;32.35;11.10;;;;;;;-0.17;91.59;96879.75;5050663;28;20052;-81
2021/01/04 08:18:19;;;;;;;30.15;12.15;;;;;;;-0.24;91.42;96879.69;5031373;28;20523;-81
2021/01/04 08:21:12;;;;;;;30.90;11.88;;;;;;;-0.21;91.30;96881.91;5031961;28;20040;-81
2021/01/04 08:23:41;;;;;;;34.70;12.18;;;;;;;-0.22;91.07;96877.75;5028105;28;20025;-81
2021/01/04 08:26:15;;;;;;;32.83;11.68;;;;;;;-0.23;91.51;96881.25;5047327;28;20037;-81
2021/01/04 08:28:48;;;;;;;34.78;13.00;;;;;;;-0.22;91.88;96869.28;5032148;28;20033;-81
2021/01/04 08:31:25;;;;;;;36.30;12.93;;;;;;;-0.05;91.18;96883.41;5014789;28;20033;-81
2021/01/04 08:33:54;;;;;;;32.05;12.15;;;;;;;-0.05;91.18;96878.28;5029669;28;20033;-81
2021/01/04 08:36:28;;;;;;;34.20;14.23;;;;;;;-0.16;91.72;96865.19;5025183;28;20040;-81
2021/01/04 08:39:19;;;;;;;34.53;14.65;;;;;;;-0.16;91.53;96876.19;5024753;28;20025;-81
2021/01/04 08:41:45;;;;;;;35.38;14.27;;;;;;;-0.01;91.32;96873.59;5031553;28;20056;-81
2021/01/04 08:44:17;;;;;;;36.38;14.15;;;;;;;-0.04;91.10;96881.63;5013872;28;20543;-81
2021/01/04 08:46:44;;;;;;;33.28;13.13;;;;;;;-0.06;90.87;96868.22;5031419;28;20097;-81
2021/01/04 08:49:21;;;;;;;33.42;12.77;;;;;;;-0.07;90.80;96875.13;5030630;28;20486;-81
2021/01/04 08:51:49;;;;;;;38.47;13.25;;;;;;;-0.05;91.44;96877.50;5014769;28;20499;-81
2021/01/04 08:54:24;;;;;;;33.13;12.70;;;;;;;-0.12;90.92;96874.06;5030696;28;20040;-81
2021/01/04 08:57:09;;;;;;;31.67;12.18;;;;;;;-0.16;91.48;96880.53;5030868;28;20057;-81
2021/01/04 08:59:36;;;;;;;30.17;12.65;;;;;;;-0.06;91.34;96881.03;5030513;28;20422;-81
2021/01/04 09:02:14;;;;;;;32.65;11.82;;;;;;;-0.15;91.09;96887.25;5030829;28;20033;-82
2021/01/04 09:04:39;;;;;;;35.17;12.75;;;;;;;-0.11;91.49;96889.25;4992311;28;20092;-81
2021/01/04 09:07:12;;;;;;;32.58;12.85;;;;;;;-0.16;91.74;96876.19;5010117;28;20064;-81
2021/01/04 09:10:03;;;;;;;31.65;12.45;;;;;;;-0.10;91.00;96885.72;5021381;28;20488;-81
2021/01/04 09:12:33;;;;;;;32.40;11.80;;;;;;;-0.02;91.41;96887.34;5003337;28;20037;-81
2021/01/04 09:15:01;;;;;;;30.77;12.85;;;;;;;-0.09;91.65;96889.06;4988449;28;20069;-83
2021/01/04 09:17:42;;;;;;;26.65;10.77;;;;;;;-0.15;91.66;96889.81;5048401;28;20027;-82
2021/01/04 09:20:12;;;;;;;35.42;12.98;;;;;;;-0.39;92.45;96881.50;5030419;28;20033;-82
2021/01/04 09:22:38;;;;;;;30.92;11.45;;;;;;;-0.35;92.65;96892.16;5018175;28;20547;-82
2021/01/04 09:25:06;;;;;;;37.72;13.95;;;;;;;-0.31;92.73;96896.75;5030126;28;20171;-82
2021/01/04 09:27:34;;;;;;;33.58;14.02;;;;;;;-0.30;93.02;96898.31;5013858;28;20033;-82
2021/01/04 09:30:08;;;;;;;25.80;12.50;;;;;;;-0.30;92.12;96897.53;5029814;28;20480;-81
2021/01/04 09:32:40;;;;;;;31.92;13.10;;;;;;;-0.39;92.77;96884.84;5030013;28;20041;-81
2021/01/04 09:35:08;;;;;;;35.38;11.15;;;;;;;-0.42;92.77;96882.66;4992428;28;20037;-83
2021/01/04 09:37:35;;;;;;;28.40;12.32;;;;;;;-0.34;92.56;96892.00;5007806;28;20368;-82
2021/01/04 09:40:06;;;;;;;31.27;12.32;;;;;;;-0.31;92.63;96893.38;5006681;28;20082;-81
2021/01/04 09:42:31;;;;;;;29.35;10.77;;;;;;;-0.32;92.51;96879.81;5006397;28;20025;-81
2021/01/04 09:45:13;;;;;;;31.55;11.77;;;;;;;-0.32;92.84;96892.59;5003435;28;20111;-81
2021/01/04 09:47:49;;;;;;;34.47;13.18;;;;;;;-0.31;92.82;96889.06;5020779;28;20048;-81
2021/01/04 09:50:27;;;;;;;27.85;11.27;;;;;;;-0.22;92.70;96893.09;5000175;28;20034;-81
2021/01/04 09:53:13;;;;;;;33.70;12.60;;;;;;;-0.17;91.80;96895.09;5014329;28;20034;-81
2021/01/04 09:55:47;;;;;;;33.38;12.70;;;;;;;-0.21;92.33;96893.88;5044843;28;20197;-81
2021/01/04 09:58:17;;;;;;;29.05;12.63;;;;;;;-0.29;92.18;96882.00;5013404;28;20482;-81
2021/01/04 10:00:45;;;;;;;38.17;14.32;;;;;;;-0.27;92.35;96882.59;5014473;28;20032;-81
2021/01/04 10:03:17;;;;;;;36.85;14.27;;;;;;;-0.43;92.63;96862.38;5016063;28;20049;-81
2021/01/04 10:05:45;;;;;;;38.13;15.60;;;;;;;-0.21;92.73;96899.81;5019014;28;20414;-81
2021/01/04 10:08:21;;;;;;;38.15;13.75;;;;;;;-0.29;92.01;96889.69;5013455;28;20026;-81
2021/01/04 10:11:07;;;;;;;;;;;;;;;-0.26;92.55;96899.56;5032279;28;20113;-80
2021/01/04 10:13:37;;;;;;;37.40;13.68;;;;;;;-0.34;92.74;96879.19;4999205;28;20260;-81
2021/01/04 10:16:09;;;;;;;39.63;13.68;;;;;;;-0.48;92.25;96877.47;5002870;28;20033;-81
2021/01/04 10:18:44;;;;;;;33.47;14.18;;;;;;;-0.29;92.70;96886.31;4999384;28;20021;-81
2021/01/04 10:21:21;;;;;;;35.40;13.80;;;;;;;-0.31;92.64;96881.41;5026365;28;20091;-81
2021/01/04 10:23:59;;;;;;;37.38;14.25;;;;;;;-0.46;92.54;96860.97;5033666;28;20079;-81
2021/01/04 10:26:25;;;;;;;41.60;13.57;;;;;;;-0.24;92.09;96882.25;4998320;28;20437;-81
2021/01/04 10:28:51;;;;;;;42.70;15.38;;;;;;;-0.54;92.17;96838.06;5010260;28;20029;-82
2021/01/04 10:31:25;;;;;;;37.03;15.25;;;;;;;-0.42;92.44;96856.28;5004545;28;20048;-81
2021/01/04 10:34:03;;;;;;;39.92;14.50;;;;;;;-0.35;92.29;96869.94;5000837;28;20034;-80
2021/01/04 10:36:32;;;;;;;33.92;15.32;;;;;;;-0.38;92.23;96862.63;5034768;28;20029;-81
2021/01/04 10:39:16;;;;;;;37.05;14.98;;;;;;;-0.39;92.66;96863.59;5000117;28;20552;-81
2021/01/04 10:41:42;;;;;;;40.95;14.98;;;;;;;-0.29;92.55;96865.84;5033175;28;20029;-81
2021/01/04 10:44:11;;;;;;;59.33;17.13;;;;;;;-0.50;92.61;96843.63;4970574;28;20034;-81
2021/01/04 10:46:41;;;;;;;94.47;20.08;;;;;;;-0.42;93.38;96867.31;5013985;28;20524;-81
2021/01/04 10:49:22;;;;;;;67.45;17.92;;;;;;;-0.59;93.57;96841.16;5026348;28;20407;-81
2021/01/04 10:51:52;;;;;;;84.00;18.83;;;;;;;-0.66;93.31;96835.19;4994437;28;20500;-81
2021/01/04 10:54:41;;;;;;;112.82;20.08;;;;;;;-0.48;93.65;96867.25;5012844;28;20527;-81
2021/01/04 10:57:21;;;;;;;154.82;23.17;;;;;;;-0.47;93.72;96867.06;5025290;28;20036;-81
2021/01/04 11:00:12;;;;;;;152.52;24.95;;;;;;;-0.84;93.37;96819.47;5026651;28;20396;-81
2021/01/04 11:02:49;;;;;;;103.15;20.08;;;;;;;-0.62;93.56;96862.00;4968405;28;20054;-80
2021/01/04 11:05:32;;;;;;;82.50;18.98;;;;;;;-0.50;94.12;96854.63;5020462;28;20029;-81
2021/01/04 11:08:12;;;;;;;132.63;25.08;;;;;;;-0.56;93.79;96847.69;5005974;28;20060;-80
2021/01/04 11:10:38;;;;;;;130.73;27.30;;;;;;;-0.52;93.75;96843.00;4996043;28;20037;-81
2021/01/04 11:13:03;;;;;;;155.98;25.35;;;;;;;-0.56;94.18;96834.91;4987757;28;20033;-80
2021/01/04 11:15:39;;;;;;;96.00;20.80;;;;;;;-0.58;93.67;96831.75;5012714;28;20120;-81
2021/01/04 11:18:05;;;;;;;101.72;19.90;;;;;;;-0.52;94.31;96840.47;4970148;28;20057;-81
2021/01/04 11:20:32;;;;;;;148.18;23.17;;;;;;;-0.57;94.22;96834.13;5030078;28;20061;-81
2021/01/04 11:23:06;;;;;;;92.75;20.63;;;;;;;-0.58;93.87;96840.22;5006211;28;20071;-82
2021/01/04 11:25:33;;;;;;;133.32;24.52;;;;;;;-0.55;93.76;96833.94;4990164;28;20360;-81
2021/01/04 11:27:59;;;;;;;148.80;25.80;;;;;;;-0.64;94.11;96833.25;5005931;28;20477;-81
2021/01/04 11:30:29;;;;;;;133.80;24.55;;;;;;;-0.68;94.88;96834.59;4998645;28;20062;-81
2021/01/04 11:32:55;;;;;;;96.90;21.67;;;;;;;-0.66;94.53;96830.09;5023471;28;20091;-81
2021/01/04 11:35:23;;;;;;;112.38;24.10;;;;;;;-0.63;93.99;96822.06;5009290;28;20439;-81
2021/01/04 11:37:48;;;;;;;100.57;23.23;;;;;;;-0.54;93.93;96827.06;4971098;28;20097;-82
2021/01/04 11:40:14;;;;;;;116.00;25.00;;;;;;;-0.53;94.27;96826.88;5024715;28;20064;-83
2021/01/04 11:42:42;;;;;;;107.88;22.98;;;;;;;-0.41;93.85;96832.31;4984716;28;20141;-82
2021/01/04 11:45:08;;;;;;;150.77;23.88;;;;;;;-0.40;93.65;96836.44;4995223;28;20436;-81
2021/01/04 11:47:35;;;;;;;65.15;20.00;;;;;;;-0.50;93.71;96823.94;4980375;28;20025;-82
2021/01/04 11:50:01;;;;;;;113.38;24.95;;;;;;;-0.57;94.15;96826.47;5006201;28;20515;-81
2021/01/04 11:52:26;;;;;;;76.18;21.52;;;;;;;-0.46;94.18;96819.28;5023127;28;20091;-81
2021/01/04 11:54:52;;;;;;;79.38;22.17;;;;;;;-0.39;93.80;96820.13;4995522;28;20038;-81
2021/01/04 11:57:17;;;;;;;97.97;22.95;;;;;;;-0.49;93.35;96834.97;4995515;28;20033;-82
2021/01/04 11:59:44;;;;;;;84.38;22.13;;;;;;;-0.58;93.70;96809.53;4995481;28;20031;-81
2021/01/04 12:02:10;;;;;;;75.57;21.17;;;;;;;-0.43;93.95;96831.69;5011993;28;20033;-80
2021/01/04 12:04:36;;;;;;;68.13;20.75;;;;;;;-0.41;94.13;96817.75;5026731;28;20041;-82